Time;durP1;ratioP1;P1;durP2;ratioP2;P2;SDS_P1;SDS_P2;PMS_P1;PMS_P2;Temp;Humidity;BMP_temperature;BMP_pressure;BME280_temperature;BME280_humidity;BME280_pressure;Samples;Min_cycle;Max_cycle;Signal;HPM_P1;HPM_P2
2022/02/23 00:01:18;;;;;;;7.65;4.10;;;;;;;3.91;62.24;99270.36;1541819;92;21044;-83
2022/02/23 00:03:46;;;;;;;5.78;3.50;;;;;;;3.88;62.76;99274.28;1533231;92;21586;-81
2022/02/23 00:06:12;;;;;;;5.22;3.75;;;;;;;3.87;63.31;99272.64;1546538;92;21401;-83
2022/02/23 00:08:38;;;;;;;6.35;4.08;;;;;;;3.88;63.45;99271.63;1546444;92;21541;-82
2022/02/23 00:11:05;;;;;;;4.33;3.67;;;;;;;3.89;63.62;99266.58;1546713;92;21509;-84
2022/02/23 00:13:32;;;;;;;5.80;4.10;;;;;;;3.89;63.67;99261.77;1546688;92;21610;-83
2022/02/23 00:15:58;;;;;;;5.83;3.87;;;;;;;3.87;63.47;99259.34;1547543;92;21125;-83
2022/02/23 00:18:25;;;;;;;5.67;4.03;;;;;;;3.85;63.09;99270.70;1547393;90;21117;-75
2022/02/23 00:20:51;;;;;;;6.40;4.03;;;;;;;3.84;62.74;99267.73;1546578;92;21135;-74
2022/02/23 00:23:19;;;;;;;6.05;4.10;;;;;;;3.82;62.68;99271.15;1516476;93;21086;-74
2022/02/23 00:25:45;;;;;;;8.18;4.05;;;;;;;3.81;62.63;99264.20;1519001;94;21108;-75
2022/02/23 00:28:12;;;;;;;7.90;4.00;;;;;;;3.81;62.52;99268.70;1535680;92;21080;-75
2022/02/23 00:30:38;;;;;;;6.90;3.72;;;;;;;3.82;62.46;99268.48;1546261;92;21084;-75
2022/02/23 00:33:04;;;;;;;7.80;3.37;;;;;;;3.82;62.50;99264.50;1544678;92;21608;-75
2022/02/23 00:35:31;;;;;;;6.97;3.95;;;;;;;3.84;62.54;99266.41;1525678;92;21893;-74
2022/02/23 00:37:57;;;;;;;4.67;3.50;;;;;;;3.84;62.58;99266.92;1546398;91;21600;-74
2022/02/23 00:40:26;;;;;;;4.95;4.12;;;;;;;3.85;62.58;99263.23;1543874;92;32702;-75
2022/02/23 00:42:53;;;;;;;4.08;3.55;;;;;;;3.86;62.55;99269.68;1543743;92;21127;-75
2022/02/23 00:45:20;;;;;;;3.22;2.70;;;;;;;3.87;62.50;99277.15;1517380;92;21211;-75
2022/02/23 00:47:47;;;;;;;4.05;2.92;;;;;;;3.87;62.37;99273.98;1546395;92;21325;-74
2022/02/23 00:50:14;;;;;;;3.05;2.75;;;;;;;3.88;62.28;99270.29;1548096;92;21015;-78
2022/02/23 00:52:40;;;;;;;8.13;3.40;;;;;;;3.89;62.07;99263.92;1533667;92;21046;-87
2022/02/23 00:55:08;;;;;;;4.40;2.98;;;;;;;3.90;61.82;99264.22;1544258;92;21027;-77
2022/02/23 00:57:36;;;;;;;6.00;3.55;;;;;;;3.92;61.54;99269.34;1537255;91;21049;-77
2022/02/23 01:00:05;;;;;;;8.28;3.50;;;;;;;3.93;61.42;99277.63;1524568;94;21882;-76
2022/02/23 01:02:33;;;;;;;7.90;3.65;;;;;;;3.92;61.29;99282.13;1551865;91;21063;-75
2022/02/23 01:04:59;;;;;;;4.67;3.47;;;;;;;3.93;61.13;99286.94;1540350;92;21045;-76
2022/02/23 01:07:26;;;;;;;9.50;5.37;;;;;;;3.95;61.13;99288.84;1552862;91;21104;-78
2022/02/23 01:09:53;;;;;;;6.03;3.90;;;;;;;3.97;61.00;99295.28;1532483;92;21126;-77
2022/02/23 01:12:19;;;;;;;4.83;3.17;;;;;;;3.96;60.99;99294.47;1554965;91;21878;-77
2022/02/23 01:14:46;;;;;;;6.92;3.22;;;;;;;3.98;60.95;99293.72;1557313;90;20993;-77
2022/02/23 01:17:14;;;;;;;5.47;3.40;;;;;;;4.00;60.90;99295.66;1552636;90;21125;-75
2022/02/23 01:19:40;;;;;;;5.28;3.40;;;;;;;4.03;60.86;99298.42;1552463;92;21072;-77
2022/02/23 01:22:06;;;;;;;7.03;2.80;;;;;;;4.03;60.74;99293.09;1552937;91;21112;-75
2022/02/23 01:24:33;;;;;;;3.00;2.70;;;;;;;4.07;60.75;99300.94;1552378;91;21199;-77
2022/02/23 01:26:59;;;;;;;5.08;3.58;;;;;;;4.07;60.70;99304.42;1552541;92;21020;-76
2022/02/23 01:29:26;;;;;;;4.35;2.98;;;;;;;4.08;60.64;99299.88;1552555;91;21065;-74
2022/02/23 01:31:52;;;;;;;3.83;3.15;;;;;;;4.10;60.68;99297.31;1552728;92;21019;-75
2022/02/23 01:34:19;;;;;;;3.12;2.77;;;;;;;4.12;60.68;99302.44;1538401;91;21089;-75
2022/02/23 01:36:47;;;;;;;3.42;2.85;;;;;;;4.14;60.69;99312.33;1529613;92;21001;-77
2022/02/23 01:39:13;;;;;;;4.65;3.33;;;;;;;4.15;60.79;99325.42;1544417;92;21098;-78
2022/02/23 01:41:39;;;;;;;3.75;2.58;;;;;;;4.17;60.89;99332.66;1544689;92;21051;-77
2022/02/23 01:44:06;;;;;;;4.05;2.98;;;;;;;4.19;61.20;99336.44;1551224;92;21117;-77
2022/02/23 01:46:32;;;;;;;4.12;3.12;;;;;;;4.19;61.24;99326.61;1557043;91;21615;-76
2022/02/23 01:48:58;;;;;;;3.85;3.10;;;;;;;4.21;61.61;99329.89;1552408;91;21107;-76
2022/02/23 01:51:25;;;;;;;4.87;2.90;;;;;;;4.25;61.76;99333.73;1532366;93;21050;-80
2022/02/23 01:53:51;;;;;;;5.62;3.98;;;;;;;4.31;61.82;99339.53;1527988;94;21231;-79
2022/02/23 01:56:17;;;;;;;4.78;3.50;;;;;;;4.33;61.83;99344.10;1561030;91;21002;-80
2022/02/23 01:58:44;;;;;;;5.67;2.80;;;;;;;4.35;61.82;99342.56;1554004;92;21095;-82
2022/02/23 02:01:12;;;;;;;4.42;3.12;;;;;;;4.36;61.83;99344.98;1552877;92;21830;-81
2022/02/23 02:03:39;;;;;;;4.37;2.92;;;;;;;4.36;61.62;99349.52;1552735;91;21097;-80
2022/02/23 02:06:05;;;;;;;5.15;3.10;;;;;;;4.38;61.60;99346.11;1552822;92;21029;-80
2022/02/23 02:08:32;;;;;;;4.42;2.95;;;;;;;4.37;61.48;99349.28;1556664;91;21029;-81
2022/02/23 02:10:59;;;;;;;3.87;3.50;;;;;;;4.38;61.37;99350.10;1557439;91;21873;-80
2022/02/23 02:13:25;;;;;;;4.47;2.95;;;;;;;4.37;61.31;99351.95;1556934;91;21118;-81
2022/02/23 02:15:51;;;;;;;4.37;3.27;;;;;;;4.37;61.31;99353.79;1548181;92;21079;-80
2022/02/23 02:18:18;;;;;;;4.70;3.27;;;;;;;4.37;61.35;99356.45;1548307;92;21538;-82
2022/02/23 02:20:46;;;;;;;4.12;2.75;;;;;;;4.36;61.28;99350.86;1551572;92;21624;-80
2022/02/23 02:23:12;;;;;;;5.35;3.15;;;;;;;4.37;61.34;99349.28;1553115;91;21080;-81
2022/02/23 02:25:39;;;;;;;5.75;3.40;;;;;;;4.37;61.22;99351.95;1552838;91;21256;-79
2022/02/23 02:28:05;;;;;;;3.10;2.72;;;;;;;4.35;61.25;99357.20;1552757;90;21194;-81
2022/02/23 02:30:32;;;;;;;3.87;2.90;;;;;;;4.35;61.30;99366.01;1557605;91;21126;-81
2022/02/23 02:32:58;;;;;;;3.92;2.85;;;;;;;4.34;61.18;99371.54;1530878;92;21067;-80
2022/02/23 02:35:25;;;;;;;3.02;2.62;;;;;;;4.33;61.25;99370.72;1549896;92;21542;-82
2022/02/23 02:37:51;;;;;;;3.90;2.72;;;;;;;4.32;61.27;99378.91;1544823;91;21065;-82
2022/02/23 02:40:17;;;;;;;4.50;3.45;;;;;;;4.31;61.27;99380.80;1548161;92;21097;-82
2022/02/23 02:42:44;;;;;;;6.72;2.77;;;;;;;4.32;61.21;99381.58;1548105;92;21100;-79
2022/02/23 02:45:10;;;;;;;3.90;3.52;;;;;;;4.29;61.26;99378.03;1547905;92;21035;-77
2022/02/23 02:47:36;;;;;;;5.15;2.95;;;;;;;4.28;61.32;99379.05;1548163;92;21043;-78
2022/02/23 02:50:05;;;;;;;9.45;3.35;;;;;;;4.24;61.46;99389.33;1517906;92;21978;-79
2022/02/23 02:52:33;;;;;;;3.65;2.95;;;;;;;4.23;61.60;99389.02;1552946;92;21012;-78
2022/02/23 02:55:03;;;;;;;4.17;3.42;;;;;;;4.23;61.71;99393.53;1553113;91;21013;-82
2022/02/23 02:57:30;;;;;;;3.50;2.60;;;;;;;4.22;61.85;99399.36;1537687;92;20997;-82
2022/02/23 02:59:56;;;;;;;4.15;2.90;;;;;;;4.23;61.96;99401.00;1536448;92;21109;-81
2022/02/23 03:02:22;;;;;;;5.35;3.65;;;;;;;4.21;62.17;99405.73;1553138;92;21178;-89
2022/02/23 03:04:49;;;;;;;4.83;3.50;;;;;;;4.22;62.34;99411.88;1555675;91;21048;-88
2022/02/23 03:07:16;;;;;;;5.85;3.80;;;;;;;4.22;62.64;99410.01;1553894;92;20993;-90
2022/02/23 03:09:45;;;;;;;6.17;3.80;;;;;;;4.22;62.84;99415.33;1553625;92;21040;-76
2022/02/23 03:12:11;;;;;;;6.10;3.77;;;;;;;4.22;62.76;99413.22;1553819;91;21092;-88
2022/02/23 03:14:37;;;;;;;4.42;3.92;;;;;;;4.19;62.39;99426.42;1560584;88;21205;-90
2022/02/23 03:17:04;;;;;;;6.80;3.30;;;;;;;4.19;62.46;99422.94;1554733;91;21497;-90
2022/02/23 03:19:33;;;;;;;7.17;4.20;;;;;;;4.16;62.51;99418.06;1553048;92;21048;-88
2022/02/23 03:21:59;;;;;;;3.90;3.22;;;;;;;4.16;62.62;99412.22;1526136;92;21060;-92
2022/02/23 03:24:25;;;;;;;5.28;3.58;;;;;;;4.13;62.62;99417.95;1553208;92;21073;-89
2022/02/23 03:26:52;;;;;;;3.92;3.30;;;;;;;4.12;62.52;99420.34;1554411;92;21188;-85
2022/02/23 03:29:18;;;;;;;4.20;3.10;;;;;;;4.10;62.47;99429.05;1551703;92;20940;-86
2022/02/23 03:31:44;;;;;;;5.42;3.50;;;;;;;4.08;62.34;99425.77;1552735;92;21018;-88
2022/02/23 03:34:10;;;;;;;5.65;4.17;;;;;;;4.07;62.34;99426.00;1560752;89;20981;-84
2022/02/23 03:36:37;;;;;;;4.42;2.87;;;;;;;4.05;62.01;99430.70;1556183;89;21188;-82
2022/02/23 03:39:04;;;;;;;4.08;2.65;;;;;;;4.00;61.88;99431.35;1557865;91;21446;-80
2022/02/23 03:41:30;;;;;;;3.42;2.77;;;;;;;3.97;61.82;99425.65;1553528;91;21153;-77
2022/02/23 03:43:57;;;;;;;7.40;4.05;;;;;;;3.95;61.79;99433.83;1529322;92;21089;-77
2022/02/23 03:46:23;;;;;;;5.20;3.05;;;;;;;3.91;61.84;99426.80;1552526;90;21123;-77
2022/02/23 03:48:49;;;;;;;4.83;3.55;;;;;;;3.90;61.88;99429.66;1552760;91;21023;-78
2022/02/23 03:51:16;;;;;;;4.58;3.05;;;;;;;3.89;61.94;99443.98;1557303;91;21170;-77
2022/02/23 03:53:42;;;;;;;4.35;3.10;;;;;;;3.85;61.96;99434.30;1552585;91;21608;-79
2022/02/23 03:56:38;;;;;;;4.28;2.98;;;;;;;3.84;62.07;99436.64;1563835;90;20963;-78
2022/02/23 03:58:37;;;;;;;4.40;2.70;;;;;;;3.82;62.14;99432.58;1579341;90;21051;-79
2022/02/23 04:01:03;;;;;;;5.15;3.95;;;;;;;3.80;62.20;99435.95;1560980;90;21055;-77
2022/02/23 04:03:30;;;;;;;4.08;3.20;;;;;;;3.78;62.27;99438.03;1525329;92;22446;-76
2022/02/23 04:05:57;;;;;;;5.08;3.10;;;;;;;3.77;62.31;99439.88;1556929;91;21068;-77
2022/02/23 04:08:23;;;;;;;5.53;3.05;;;;;;;3.72;62.36;99443.67;1557154;91;21537;-77
2022/02/23 04:10:50;;;;;;;4.30;3.08;;;;;;;3.67;62.35;99446.16;1557156;91;21271;-77
2022/02/23 04:13:16;;;;;;;3.58;3.05;;;;;;;3.62;62.36;99443.81;1552755;92;21795;-77
2022/02/23 04:15:43;;;;;;;4.55;3.02;;;;;;;3.57;62.47;99448.44;1550611;92;21131;-77
2022/02/23 04:18:09;;;;;;;5.60;3.05;;;;;;;3.52;62.63;99448.25;1548247;92;21089;-77
2022/02/23 04:20:36;;;;;;;5.35;3.22;;;;;;;3.47;62.74;99447.55;1544683;92;21091;-77
2022/02/23 04:23:03;;;;;;;6.75;4.30;;;;;;;3.46;62.89;99447.75;1549489;92;21797;-77
2022/02/23 04:25:29;;;;;;;6.83;4.22;;;;;;;3.42;63.00;99455.34;1548356;92;21126;-76
2022/02/23 04:27:56;;;;;;;8.90;4.10;;;;;;;3.38;63.14;99463.94;1548101;92;21567;-76
2022/02/23 04:30:22;;;;;;;7.03;4.30;;;;;;;3.34;63.29;99474.69;1547987;92;21679;-78
2022/02/23 04:32:49;;;;;;;11.85;5.85;;;;;;;3.30;63.39;99467.66;1548020;92;21576;-76
2022/02/23 04:35:16;;;;;;;10.90;4.62;;;;;;;3.27;63.50;99477.86;1552120;92;21538;-77
2022/02/23 04:37:43;;;;;;;5.20;2.83;;;;;;;3.22;63.62;99482.98;1552779;92;21084;-77
2022/02/23 04:40:10;;;;;;;8.45;3.87;;;;;;;3.15;63.45;99482.19;1552576;91;21310;-75
2022/02/23 04:42:39;;;;;;;2.83;2.50;;;;;;;3.06;63.34;99485.58;1511647;92;21031;-77
2022/02/23 04:45:08;;;;;;;5.37;2.83;;;;;;;3.02;63.68;99487.81;1555237;91;21068;-77
2022/02/23 04:47:34;;;;;;;3.42;2.75;;;;;;;2.97;63.66;99486.82;1553137;92;21166;-76
2022/02/23 04:50:01;;;;;;;6.97;4.03;;;;;;;2.95;63.50;99500.80;1562133;91;21138;-77
2022/02/23 04:52:27;;;;;;;4.28;2.60;;;;;;;2.91;63.58;99498.26;1551337;92;21218;-76
2022/02/23 04:54:53;;;;;;;3.52;2.95;;;;;;;2.86;63.27;99499.38;1549494;91;21110;-78
2022/02/23 04:57:20;;;;;;;4.08;2.45;;;;;;;2.81;63.25;99506.64;1550082;92;21077;-79
2022/02/23 04:59:46;;;;;;;3.50;2.45;;;;;;;2.79;62.75;99511.32;1528934;92;21714;-76
2022/02/23 05:02:12;;;;;;;4.17;3.02;;;;;;;2.75;62.65;99507.44;1526537;93;21086;-78
2022/02/23 05:04:39;;;;;;;5.78;2.90;;;;;;;2.72;62.58;99511.02;1538629;92;21246;-77
2022/02/23 05:07:06;;;;;;;3.77;2.08;;;;;;;2.66;62.08;99510.50;1551345;92;21056;-77
2022/02/23 05:09:33;;;;;;;4.22;2.40;;;;;;;2.62;61.76;99520.72;1551537;92;21095;-78
2022/02/23 05:11:59;;;;;;;5.75;2.85;;;;;;;2.60;61.62;99524.89;1550114;91;21513;-77
2022/02/23 05:14:26;;;;;;;3.67;2.50;;;;;;;2.59;61.57;99521.13;1549447;91;21079;-76
2022/02/23 05:16:52;;;;;;;3.67;2.65;;;;;;;2.56;61.51;99516.20;1550055;91;21952;-79
2022/02/23 05:19:19;;;;;;;4.95;2.98;;;;;;;2.56;61.45;99525.50;1550165;91;21029;-77
2022/02/23 05:21:45;;;;;;;3.33;2.80;;;;;;;2.53;61.55;99527.23;1550159;92;21752;-74
2022/02/23 05:24:13;;;;;;;5.85;3.98;;;;;;;2.53;61.58;99519.28;1550366;91;21154;-77
2022/02/23 05:26:40;;;;;;;6.47;4.42;;;;;;;2.52;61.63;99528.25;1550124;92;21598;-77
2022/02/23 05:29:06;;;;;;;5.28;3.85;;;;;;;2.52;61.73;99530.91;1550170;92;21261;-76
2022/02/23 05:31:33;;;;;;;9.43;5.10;;;;;;;2.51;61.83;99538.05;1550013;92;21071;-75
2022/02/23 05:33:59;;;;;;;7.53;5.50;;;;;;;2.51;62.03;99538.55;1550037;92;21038;-77
2022/02/23 05:36:25;;;;;;;7.75;3.87;;;;;;;2.50;62.17;99536.91;1549963;92;21099;-77
2022/02/23 05:38:52;;;;;;;5.78;3.15;;;;;;;2.49;62.16;99538.78;1550286;92;21608;-78
2022/02/23 05:41:18;;;;;;;4.33;3.37;;;;;;;2.49;62.21;99549.91;1549821;92;21168;-78
2022/02/23 05:43:45;;;;;;;7.30;3.60;;;;;;;2.47;62.26;99558.05;1549474;91;20970;-79
2022/02/23 05:46:11;;;;;;;6.20;3.72;;;;;;;2.47;62.37;99545.29;1549620;92;22354;-78
2022/02/23 05:48:38;;;;;;;6.20;4.50;;;;;;;2.50;62.51;99551.52;1548017;92;21020;-80
2022/02/23 05:51:05;;;;;;;7.08;4.55;;;;;;;2.54;62.47;99560.20;1553097;92;21612;-78
2022/02/23 05:53:31;;;;;;;7.87;4.72;;;;;;;2.59;62.44;99559.09;1551086;91;21101;-76
2022/02/23 05:55:57;;;;;;;10.25;4.80;;;;;;;2.64;62.23;99563.79;1548266;92;21075;-79
2022/02/23 05:58:24;;;;;;;7.80;5.05;;;;;;;2.65;62.03;99565.43;1556083;92;21118;-80
2022/02/23 06:00:51;;;;;;;6.00;4.42;;;;;;;2.66;62.10;99570.23;1552896;91;21058;-79
2022/02/23 06:03:17;;;;;;;5.75;3.75;;;;;;;2.67;62.19;99571.88;1552892;91;21092;-79
2022/02/23 06:05:44;;;;;;;8.48;4.47;;;;;;;2.70;62.26;99575.45;1537630;92;21290;-80
2022/02/23 06:08:11;;;;;;;7.55;4.25;;;;;;;2.74;62.33;99578.00;1557055;91;21020;-82
2022/02/23 06:10:37;;;;;;;9.75;3.95;;;;;;;2.80;62.48;99575.88;1544393;92;22380;-80
2022/02/23 06:13:04;;;;;;;3.70;2.65;;;;;;;2.82;62.57;99576.50;1552654;92;21069;-78
2022/02/23 06:15:30;;;;;;;4.17;2.95;;;;;;;2.83;62.73;99584.25;1550392;91;21145;-79
2022/02/23 06:17:58;;;;;;;4.42;3.50;;;;;;;2.84;62.82;99588.55;1548518;92;21355;-79
2022/02/23 06:20:27;;;;;;;10.48;3.37;;;;;;;2.86;62.97;99587.02;1553129;92;21010;-81
2022/02/23 06:22:53;;;;;;;8.25;3.80;;;;;;;2.88;63.04;99586.30;1553058;91;21238;-80
2022/02/23 06:25:19;;;;;;;3.87;3.00;;;;;;;2.90;63.15;99603.67;1552950;91;22298;-83
2022/02/23 06:27:46;;;;;;;5.37;3.30;;;;;;;2.88;63.55;99604.88;1553404;92;21129;-83
2022/02/23 06:30:12;;;;;;;7.25;4.22;;;;;;;2.82;63.86;99602.55;1550511;92;21259;-82
2022/02/23 06:32:39;;;;;;;6.78;3.75;;;;;;;2.77;64.12;99601.01;1528904;92;21703;-82
2022/02/23 06:35:08;;;;;;;6.70;3.35;;;;;;;2.74;64.25;99607.20;1551658;91;21036;-84
2022/02/23 06:37:36;;;;;;;4.37;3.00;;;;;;;2.72;64.43;99606.11;1524852;93;21664;-85
2022/02/23 06:40:04;;;;;;;3.25;2.70;;;;;;;2.70;64.42;99612.11;1536461;92;21707;-82
2022/02/23 06:42:32;;;;;;;5.95;4.03;;;;;;;2.67;64.32;99607.72;1552962;92;21201;-85
2022/02/23 06:44:58;;;;;;;4.83;3.20;;;;;;;2.63;64.25;99617.42;1564132;91;21608;-83
2022/02/23 06:47:24;;;;;;;9.90;3.95;;;;;;;2.61;64.24;99618.13;1544341;92;21060;-78
2022/02/23 06:49:50;;;;;;;9.38;3.58;;;;;;;2.60;64.09;99616.48;1548140;92;21019;-81
2022/02/23 06:52:19;;;;;;;10.43;4.22;;;;;;;2.58;63.51;99619.86;1548192;92;21088;-83
2022/02/23 06:54:45;;;;;;;4.97;3.92;;;;;;;2.58;63.44;99613.73;1532397;93;21250;-84
2022/02/23 06:57:12;;;;;;;11.80;4.85;;;;;;;2.60;63.48;99622.30;1564014;91;21076;-83
2022/02/23 06:59:39;;;;;;;3.33;3.02;;;;;;;2.62;63.23;99617.11;1548157;92;21060;-82
2022/02/23 07:02:08;;;;;;;6.22;4.15;;;;;;;2.64;63.00;99620.36;1547985;92;21120;-76
2022/02/23 07:04:35;;;;;;;6.30;4.35;;;;;;;2.68;62.90;99627.44;1551385;89;21063;-76
2022/02/23 07:07:03;;;;;;;2.80;2.52;;;;;;;2.73;62.65;99633.48;1544218;92;21432;-78
2022/02/23 07:09:29;;;;;;;6.90;3.08;;;;;;;2.74;61.48;99633.77;1535469;92;21072;-80
2022/02/23 07:11:56;;;;;;;4.50;2.87;;;;;;;2.78;61.22;99635.02;1554834;90;21088;-81
2022/02/23 07:14:22;;;;;;;4.70;3.58;;;;;;;2.80;60.95;99638.28;1551896;90;21041;-83
2022/02/23 07:16:48;;;;;;;3.77;2.87;;;;;;;2.84;61.21;99637.67;1548859;91;21176;-82
2022/02/23 07:19:16;;;;;;;3.80;2.75;;;;;;;2.90;61.07;99648.83;1544784;92;21572;-82
2022/02/23 07:21:44;;;;;;;6.62;3.12;;;;;;;2.97;60.66;99648.86;1548911;92;21069;-81
2022/02/23 07:24:11;;;;;;;3.75;2.70;;;;;;;3.02;59.11;99652.52;1537676;92;21029;-82
2022/02/23 07:26:37;;;;;;;4.65;2.52;;;;;;;3.04;57.70;99650.48;1503127;94;21143;-82
2022/02/23 07:29:03;;;;;;;3.05;2.50;;;;;;;3.04;56.97;99658.97;1532805;92;21073;-83
2022/02/23 07:31:30;;;;;;;3.75;2.72;;;;;;;3.03;56.60;99662.12;1563988;91;21173;-82
2022/02/23 07:33:56;;;;;;;4.17;2.67;;;;;;;3.05;56.91;99662.77;1552149;91;21075;-81
2022/02/23 07:36:22;;;;;;;4.65;2.72;;;;;;;3.04;57.13;99667.76;1552329;92;21405;-81
2022/02/23 07:38:51;;;;;;;5.53;2.90;;;;;;;3.06;57.55;99668.89;1555077;91;21097;-82
2022/02/23 07:41:22;;;;;;;3.05;2.35;;;;;;;3.05;57.04;99687.17;1553024;92;21835;-80
2022/02/23 07:43:45;;;;;;;2.40;2.20;;;;;;;3.02;57.13;99678.30;1552658;91;21187;-80
2022/02/23 07:46:14;;;;;;;3.58;2.90;;;;;;;2.98;57.64;99678.36;1551069;91;21364;-89
2022/02/23 07:48:41;;;;;;;3.65;2.30;;;;;;;2.95;57.16;99672.95;1550791;92;21190;-82
2022/02/23 07:51:09;;;;;;;4.15;2.80;;;;;;;2.94;57.41;99691.73;1553147;91;20980;-82
2022/02/23 07:53:36;;;;;;;9.75;2.80;;;;;;;2.94;57.70;99690.41;1553830;91;21137;-88
2022/02/23 07:56:03;;;;;;;4.40;2.87;;;;;;;2.92;57.43;99693.80;1551005;91;21110;-86
2022/02/23 07:58:30;;;;;;;3.70;3.12;;;;;;;2.88;57.18;99685.89;1515581;92;21533;-87
2022/02/23 08:00:57;;;;;;;2.77;2.52;;;;;;;2.86;57.67;99700.72;1561442;91;21052;-94
2022/02/23 08:03:23;;;;;;;2.45;2.25;;;;;;;2.86;57.30;99687.95;1552119;92;21103;-88
2022/02/23 08:05:51;;;;;;;7.72;2.85;;;;;;;2.85;57.16;99692.94;1551390;92;21093;-88
2022/02/23 08:08:20;;;;;;;3.90;2.30;;;;;;;2.88;57.55;99685.89;1550882;92;21532;-90
2022/02/23 08:10:48;;;;;;;3.77;3.05;;;;;;;2.95;57.54;99691.55;1550575;91;21030;-90
2022/02/23 08:13:15;;;;;;;3.42;3.08;;;;;;;3.04;56.99;99692.17;1545752;90;21036;-89
2022/02/23 08:21:13;;;;;;;6.17;4.37;;;;;;;3.13;55.35;99686.16;1552300;92;21050;-90
2022/02/23 08:23:43;;;;;;;3.98;2.95;;;;;;;3.06;55.46;99689.64;1552864;92;20950;-82
2022/02/23 08:26:09;;;;;;;6.42;3.08;;;;;;;3.07;55.69;99691.77;1552779;90;21052;-83
2022/02/23 08:28:35;;;;;;;9.43;3.35;;;;;;;3.12;55.82;99682.67;1552490;91;21082;-88
2022/02/23 08:31:03;;;;;;;3.30;2.85;;;;;;;3.21;55.73;99685.48;1551169;91;21735;-87
2022/02/23 08:33:29;;;;;;;6.37;2.40;;;;;;;3.30;55.06;99710.02;1550244;91;21897;-84
2022/02/23 08:35:56;;;;;;;2.52;2.33;;;;;;;3.37;54.22;99685.07;1549179;92;21054;-86
2022/02/23 08:38:23;;;;;;;3.05;2.60;;;;;;;3.40;53.77;99702.47;1549279;92;21123;-84
2022/02/23 08:40:49;;;;;;;3.05;2.65;;;;;;;3.36;53.81;99692.73;1549996;92;21290;-87
2022/02/23 08:43:16;;;;;;;5.12;3.10;;;;;;;3.34;53.83;99692.13;1549892;91;21373;-83
2022/02/23 08:45:42;;;;;;;4.65;2.70;;;;;;;3.26;53.69;99689.65;1550067;91;21586;-84
2022/02/23 08:48:09;;;;;;;4.15;2.72;;;;;;;3.17;53.62;99693.52;1547854;91;21109;-85
2022/02/23 08:50:35;;;;;;;3.08;2.72;;;;;;;3.14;53.85;99689.13;1545378;92;21712;-83
2022/02/23 08:53:02;;;;;;;4.08;3.33;;;;;;;3.13;54.12;99686.16;1546913;91;21078;-90
2022/02/23 08:55:31;;;;;;;3.65;2.83;;;;;;;3.17;54.03;99688.20;1498608;94;21148;-86
2022/02/23 08:57:58;;;;;;;7.70;3.83;;;;;;;3.21;53.78;99684.66;1522437;92;22249;-85
2022/02/23 09:00:25;;;;;;;6.85;2.92;;;;;;;3.25;53.28;99682.72;1524980;92;21101;-90
2022/02/23 09:02:52;;;;;;;4.17;2.33;;;;;;;3.26;53.29;99678.23;1522968;94;21221;-82
2022/02/23 09:05:18;;;;;;;5.05;2.77;;;;;;;3.33;53.23;99699.79;1520054;92;21109;-77
2022/02/23 09:07:47;;;;;;;2.00;1.90;;;;;;;3.38;52.52;99684.05;1522977;93;21058;-78
2022/02/23 09:10:14;;;;;;;4.70;4.30;;;;;;;3.43;52.36;99681.61;1520461;93;21130;-80
2022/02/23 09:12:43;;;;;;;2.62;2.42;;;;;;;3.49;52.47;99682.13;1482428;94;21660;-80
2022/02/23 09:15:12;;;;;;;3.40;2.92;;;;;;;3.55;52.34;99669.83;1522950;93;21052;-77
2022/02/23 09:17:40;;;;;;;4.33;2.87;;;;;;;3.62;51.93;99680.48;1504138;94;21562;-75
2022/02/23 09:20:07;;;;;;;2.83;2.42;;;;;;;3.63;51.83;99686.11;1540511;92;22251;-75
2022/02/23 09:22:35;;;;;;;3.22;2.77;;;;;;;3.67;51.98;99671.38;1520768;94;21128;-75
2022/02/23 09:25:03;;;;;;;3.08;2.55;;;;;;;3.75;51.92;99667.98;1526947;94;21608;-75
2022/02/23 09:27:29;;;;;;;5.20;2.92;;;;;;;3.82;51.51;99670.14;1511554;93;21663;-84
2022/02/23 09:29:56;;;;;;;3.72;2.33;;;;;;;3.89;51.55;99667.45;1541249;92;21040;-84
2022/02/23 09:32:23;;;;;;;5.37;3.50;;;;;;;3.93;51.52;99661.51;1542671;92;21083;-81
2022/02/23 09:34:49;;;;;;;4.97;3.37;;;;;;;4.01;51.41;99663.66;1551270;92;21572;-79
2022/02/23 09:37:15;;;;;;;4.87;3.60;;;;;;;4.08;51.29;99669.77;1543188;92;21085;-80
2022/02/23 09:39:42;;;;;;;5.67;2.83;;;;;;;4.17;51.34;99663.22;1495845;93;21536;-85
2022/02/23 09:42:11;;;;;;;3.95;3.55;;;;;;;4.29;51.11;99666.86;1517713;93;21220;-84
2022/02/23 09:44:43;;;;;;;6.55;2.85;;;;;;;4.37;50.35;99683.92;1511179;94;21561;-84
2022/02/23 09:47:09;;;;;;;3.52;3.22;;;;;;;4.41;50.29;99680.34;1500226;93;21253;-77
2022/02/23 09:49:37;;;;;;;3.42;3.10;;;;;;;4.41;49.89;99679.84;1520449;92;21204;-84
2022/02/23 09:52:04;;;;;;;6.15;3.52;;;;;;;4.43;50.18;99676.44;1550851;91;21031;-79
2022/02/23 09:54:31;;;;;;;4.62;4.10;;;;;;;4.51;50.20;99692.17;1533348;92;21104;-81
2022/02/23 09:56:57;;;;;;;3.72;3.35;;;;;;;4.59;50.12;99681.81;1534311;91;21106;-76
2022/02/23 09:59:25;;;;;;;10.93;3.65;;;;;;;4.66;49.72;99682.08;1551727;91;21114;-81
2022/02/23 10:01:53;;;;;;;4.72;3.80;;;;;;;4.72;49.92;99684.41;1545161;92;21096;-92
2022/02/23 10:04:23;;;;;;;3.83;3.33;;;;;;;4.82;49.63;99686.92;1527462;92;21666;-84
2022/02/23 10:06:50;;;;;;;7.00;5.00;;;;;;;4.90;49.56;99688.52;1534532;92;21583;-71
2022/02/23 10:09:17;;;;;;;4.78;3.45;;;;;;;4.98;49.09;99679.47;1526939;93;21047;-79
2022/02/23 10:11:46;;;;;;;3.55;3.25;;;;;;;5.03;49.07;99669.81;1541187;92;21867;-77
2022/02/23 10:14:14;;;;;;;5.03;2.92;;;;;;;5.12;48.32;99685.02;1537160;92;21596;-75
2022/02/23 10:16:43;;;;;;;3.70;2.72;;;;;;;5.12;47.65;99683.69;1541271;93;21080;-82
2022/02/23 10:19:22;;;;;;;3.17;2.83;;;;;;;5.11;47.57;99680.72;1538097;92;21065;-85
2022/02/23 10:22:01;;;;;;;3.10;2.72;;;;;;;5.11;47.58;99690.05;1536383;92;21117;-82
2022/02/23 10:24:32;;;;;;;3.42;3.12;;;;;;;5.11;47.40;99678.05;1519353;93;21114;-86
2022/02/23 10:27:07;;;;;;;6.58;3.80;;;;;;;5.14;47.48;99674.44;1537702;92;21099;-79
2022/02/23 10:29:50;;;;;;;5.00;4.60;;;;;;;5.17;47.34;99690.02;1546726;92;21585;-75
2022/02/23 10:32:16;;;;;;;6.17;3.47;;;;;;;5.17;47.34;99690.02;1547236;92;21398;-83
2022/02/23 10:34:46;;;;;;;3.22;2.92;;;;;;;5.21;47.46;99675.22;1547579;92;21060;-79
2022/02/23 10:37:23;;;;;;;5.08;4.03;;;;;;;5.25;47.01;99666.27;1524568;92;21132;-81
2022/02/23 10:39:59;;;;;;;3.75;3.40;;;;;;;5.26;46.60;99677.23;1547165;92;21099;-87
2022/02/23 10:42:30;;;;;;;8.88;4.20;;;;;;;5.25;46.57;99676.94;1544285;92;21204;-81
2022/02/23 10:44:58;;;;;;;5.30;4.00;;;;;;;5.23;46.89;99678.47;1546554;92;21131;-79
2022/02/23 10:47:33;;;;;;;8.43;4.87;;;;;;;5.26;47.15;99671.91;1546786;92;21066;-86
2022/02/23 10:50:12;;;;;;;7.55;3.85;;;;;;;5.33;47.39;99673.99;1547826;92;21603;-79
2022/02/23 10:52:55;;;;;;;4.92;3.10;;;;;;;5.44;47.19;99672.48;1547865;92;21625;-80
2022/02/23 10:55:24;;;;;;;4.60;4.20;;;;;;;5.56;46.93;99674.77;1527992;94;21031;-82
2022/02/23 10:58:02;;;;;;;10.90;3.65;;;;;;;5.65;46.75;99669.45;1552712;90;21128;-80
2022/02/23 11:00:31;;;;;;;13.55;3.83;;;;;;;5.69;46.51;99663.98;1539312;92;21136;-76
2022/02/23 11:02:57;;;;;;;11.85;4.17;;;;;;;5.75;46.36;99665.78;1552064;92;21221;-83
2022/02/23 11:05:25;;;;;;;4.00;3.33;;;;;;;5.81;46.17;99665.39;1552699;92;21604;-77
2022/02/23 11:07:54;;;;;;;3.92;3.52;;;;;;;5.82;45.54;99665.70;1537778;91;21086;-78
2022/02/23 11:10:21;;;;;;;5.65;3.35;;;;;;;5.81;45.54;99660.88;1553972;91;21124;-80
2022/02/23 11:12:52;;;;;;;4.83;4.35;;;;;;;5.86;45.58;99662.88;1525267;93;21149;-81
2022/02/23 11:15:22;;;;;;;4.28;3.52;;;;;;;5.96;45.23;99662.72;1561304;91;21120;-79
2022/02/23 11:17:52;;;;;;;3.40;3.10;;;;;;;6.01;44.78;99665.54;1548020;92;21665;-77
2022/02/23 11:20:22;;;;;;;8.95;4.15;;;;;;;6.04;44.52;99667.76;1552817;91;21066;-79
2022/02/23 11:22:59;;;;;;;5.87;3.70;;;;;;;6.10;44.74;99666.88;1552832;90;21151;-85
2022/02/23 11:25:29;;;;;;;6.37;3.80;;;;;;;6.14;44.54;99665.40;1539246;92;21042;-83
2022/02/23 11:28:13;;;;;;;5.37;3.62;;;;;;;6.19;44.74;99679.97;1550112;92;21147;-89
2022/02/23 11:30:40;;;;;;;6.78;4.25;;;;;;;6.22;44.69;99672.83;1552684;92;21061;-81
2022/02/23 11:33:06;;;;;;;4.28;3.15;;;;;;;6.24;44.64;99662.73;1529998;92;21001;-90
2022/02/23 11:35:40;;;;;;;3.95;3.15;;;;;;;6.30;44.61;99665.34;1548615;91;21537;-85
2022/02/23 11:38:08;;;;;;;10.25;5.28;;;;;;;6.36;44.33;99666.30;1525815;92;21077;-85
2022/02/23 11:40:56;;;;;;;3.75;3.30;;;;;;;6.39;44.28;99672.53;1555963;91;21221;-81
2022/02/23 11:43:42;;;;;;;4.47;3.67;;;;;;;6.42;44.02;99664.91;1524794;92;21485;-92
2022/02/23 11:46:08;;;;;;;4.80;3.70;;;;;;;6.44;43.63;99673.49;1538030;92;21065;-84
2022/02/23 11:48:49;;;;;;;5.70;3.47;;;;;;;6.39;43.45;99669.86;1552784;91;21089;-87